Elenik — SW3416 — position and weather

sailwx.info

Track history (hours):
 
Tides and Currents Weather Stations Pressure Air Temp Water Temp Dewpoint Dewpoint Depression Visibility Wind Speed Wind Dir Waves Ship Positions

Elenik

Last reported at 2017-Nov-17 20:19 UTC. Time now 2017-Nov-21 21:11 UTC.
Position N 37°06' E 025°22'.

Length 26 m.

Type: Fishing. MMSI: 237525000.

Date/timePositionNaut miles runAvg speedWind from/ knotsBaromVisibWave heightAir tempDewpointWater temp
2017-Nov-17 20:19N 37°06' E 025°22'0 0.6
2017-Nov-17 20:00N 37°06' E 025°22'0 0.0
2017-Nov-17 19:31N 37°06' E 025°22'0 0.0
2017-Nov-17 19:01N 37°06' E 025°22'0 0.0
2017-Nov-17 18:30N 37°06' E 025°22'0 0.0
2017-Nov-17 18:00N 37°06' E 025°22'0 0.0
2017-Nov-17 17:30N 37°06' E 025°22'0 0.0
2017-Nov-17 17:00N 37°06' E 025°22'0 0.0
2017-Nov-17 16:31N 37°06' E 025°22'0 0.0
2017-Nov-17 16:01N 37°06' E 025°22'0 0.0
2017-Nov-17 15:31N 37°06' E 025°22'0 0.0
2017-Nov-17 15:01N 37°06' E 025°22'0 0.6
2017-Nov-17 14:31N 37°07' E 025°22'  
2017-Nov-09 16:55N 37°06' E 025°22'0 0.5
2017-Nov-09 16:31N 37°06' E 025°22'0 0.0
2017-Nov-09 16:00N 37°06' E 025°22'0 0.0
2017-Nov-09 15:30N 37°06' E 025°22'0 0.0
2017-Nov-09 15:00N 37°06' E 025°22'1 1.9
2017-Nov-09 14:30N 37°07' E 025°22'4 8.2
2017-Nov-09 14:00N 37°11' E 025°19'2 2.8
2017-Nov-09 13:23N 37°12' E 025°18'1 2.9
2017-Nov-09 13:00N 37°13' E 025°17'12 4.6
2017-Nov-09 10:22N 37°09' E 025°03'  
Track history (hours):
 
Tides and Currents Weather Stations Pressure Air Temp Water Temp Dewpoint Dewpoint Depression Visibility Wind Speed Wind Dir Waves Ship Positions

Elenik

Last reported at 2017-Nov-17 20:19 UTC. Time now 2017-Nov-21 21:11 UTC.
Position N 37°06' E 025°22'.

Length 26 m.

Type: Fishing. MMSI: 237525000.

Date/timePositionNaut miles runAvg speedWind from/ knotsBaromVisibWave heightAir tempDewpointWater temp
2017-Nov-17 20:19N 37°06' E 025°22'0 0.6
2017-Nov-17 20:00N 37°06' E 025°22'0 0.0
2017-Nov-17 19:31N 37°06' E 025°22'0 0.0
2017-Nov-17 19:01N 37°06' E 025°22'0 0.0
2017-Nov-17 18:30N 37°06' E 025°22'0 0.0
2017-Nov-17 18:00N 37°06' E 025°22'0 0.0
2017-Nov-17 17:30N 37°06' E 025°22'0 0.0
2017-Nov-17 17:00N 37°06' E 025°22'0 0.0
2017-Nov-17 16:31N 37°06' E 025°22'0 0.0
2017-Nov-17 16:01N 37°06' E 025°22'0 0.0
2017-Nov-17 15:31N 37°06' E 025°22'0 0.0
2017-Nov-17 15:01N 37°06' E 025°22'0 0.6
2017-Nov-17 14:31N 37°07' E 025°22'  
2017-Nov-09 16:55N 37°06' E 025°22'0 0.5
2017-Nov-09 16:31N 37°06' E 025°22'0 0.0
2017-Nov-09 16:00N 37°06' E 025°22'0 0.0
2017-Nov-09 15:30N 37°06' E 025°22'0 0.0
2017-Nov-09 15:00N 37°06' E 025°22'1 1.9
2017-Nov-09 14:30N 37°07' E 025°22'4 8.2
2017-Nov-09 14:00N 37°11' E 025°19'2 2.8
2017-Nov-09 13:23N 37°12' E 025°18'1 2.9
2017-Nov-09 13:00N 37°13' E 025°17'12 4.6
2017-Nov-09 10:22N 37°09' E 025°03'  

Dump ship's entire track history